Zwettl Stadt, Austria
Current Conditions -  °F | °C
As of 6:50 PM on Thursday 23 Oct 2014 (Local Time) from LOXT Reporting Station
Overcast Overcast  
Wind Chill: 43°   Ceiling: 2000
Heat Index: 48°   Visibility: 6mi
Dew Point: 45°   Wind: 12mph
Humidity: 87%   Direction: 350°N
Pressure: 30.03"   Gusts: NA
Location:  48.62°N, 15.17°E
Report Text: LOXT 231650Z 35010KT 10KM OVC020SC 09/07 Q1017 RMK OVC
Loading
Personal Weather Stations






























Interactive Weather Map
Tropical Storm Tracking
New forecast layout! Learn more

10-Day Weather Forecast

Advertisements
Track Severe Weather on mobile